Meteo Giornale » Osservazioni meteo Cina » Wuhan
ore: 04:00 - Osservazioni Meteo Wuhan
Lat. 30° 37' N Lon. 114° 8' E Alt. 23 metri s.l.m.
26 °C
Sereno
Temp. 24 Ore
25 °C
34 °C
Nord
7.2 Km/h
Dew point 15 °C
Umidità 50 %
Visibilità 10 Km
Il sole sorge alle ore 05:59
Il sole tramonta alle ore 18:47
| Data e Ora | Cielo e Fenomeni | T °C | DP °C | Um. % | Pres. hPa | Vis. km | Vento km/h | |
|---|---|---|---|---|---|---|---|---|
| Oggi h: 04:00 | Sereno | 26 | 15 | 50 | 1008 | 10 | N 7.2 | |
| Oggi h: 03:00 | Sereno | 25 | 15 | 53 | 1008 | 10 | N 7.2 | |
| Oggi h: 02:00 | Sereno | 26 | 16 | 54 | 1008 | 10 | N 3.6 | |
| Oggi h: 01:00 | Sereno | 26 | 14 | 47 | 1009 | 10 | N 7.2 | |
| Oggi h: 00:00 | Sereno | 26 | 15 | 50 | 1009 | 10 | N 7.2 | |
| Ieri h: 23:00 | Sereno | 26 | 15 | 50 | 1009 | 10 | N 7.2 | |
| Ieri h: 22:00 | Sereno | 27 | 16 | 50 | 1009 | 10 | N 7.2 | |
| Ieri h: 21:00 | Sereno | 27 | 15 | 47 | 1008 | 10 | N 7.2 | |
| Ieri h: 20:00 | Sereno | 28 | 14 | 42 | 1008 | 10 | N/NE 10.8 | |
| Ieri h: 19:00 | Sereno | 29 | 15 | 42 | 1007 | 10 | N/NE 10.8 | |
| Ieri h: 18:00 | Sereno | 30 | 16 | 42 | 1007 | 10 | N/NE 10.8 | |
| Ieri h: 17:00 | Sereno | 31 | 13 | 33 | 1007 | 10 | N/NE 14.4 | |
| Ieri h: 16:00 | Sereno | 32 | 13 | 31 | 1007 | 10 | N/NE 25.2 | |
| Ieri h: 15:00 | Sereno | 34 | 14 | 30 | 1007 | 10 | N/NE 21.6 | |
| Ieri h: 14:00 | Sereno | 33 | 15 | 33 | 1007 | 10 | N/NE 21.6 | |
| Ieri h: 13:00 | Sereno | 32 | 15 | 35 | 1007 | 10 | N/NE 14.4 | |
| Ieri h: 12:00 | Sereno | 32 | 14 | 33 | 1007 | 10 | N/NE 21.6 | |
| Ieri h: 11:00 | Sereno | 31 | 16 | 40 | 1008 | 10 | N/NE 21.6 | |
| Ieri h: 10:00 | Sereno | 29 | 16 | 45 | 1008 | 10 | N/NE 18 | |
| Ieri h: 09:00 | Sereno | 28 | 19 | 58 | 1008 | 10 | N 10.8 | |
| Ieri h: 08:00 | Sereno | 25 | 21 | 78 | 1007 | 10 | N 7.2 | |
| Ieri h: 07:00 | Sereno | 25 | 22 | 83 | 1007 | 10 | N 7.2 | |
| Ieri h: 06:00 | Sereno | 25 | 21 | 78 | 1006 | 10 | N 10.8 | |
| Ieri h: 05:00 | Sereno | 26 | 22 | 78 | 1006 | 10 | N 10.8 | |



